RYR5924 LDDU-EDJA
Flight info
| Callsign | RYR5924 |
|---|---|
| Flight time | 1h 14m |
| Altitude | 36000 |
| Route | AMUGO1V AMUGO DCT SIRMI DCT KULEN DCT PESUT DCT VEKEN DCT ERKIR L608 KPT KPT1C |
| Aircraft | B738/M-SDE2E3FGHIRWXY/LB1 |
Departure
| Time | 2026-05-08 13:42 |
|---|---|
| Airport | Dubrovnik Ruđer Bošković Airport (LDDU) |
Arrival
| Time | 2026-05-08 14:56 |
|---|---|
| Airport | Memmingen Allgau Airport (EDJA) |
| Time | Latitude | Longitude | Altitude | Speed | Heading |
|---|---|---|---|---|---|
| 2026-05-08 13:14 | 42.56110 | 18.26255 | 520 ft | 0 kts | 207° |
| 2026-05-08 13:35 | 42.56117 | 18.26261 | 521 ft | 4 kts | 204° |
| 2026-05-08 13:35 | 42.56143 | 18.26272 | 522 ft | 4 kts | 186° |
| 2026-05-08 13:36 | 42.56167 | 18.26268 | 522 ft | 4 kts | 142° |
| 2026-05-08 13:36 | 42.56174 | 18.26258 | 523 ft | 0 kts | 118° |
| 2026-05-08 13:38 | 42.56174 | 18.26259 | 523 ft | 1 kts | 118° |
| 2026-05-08 13:39 | 42.56150 | 18.26319 | 523 ft | 14 kts | 118° |
| 2026-05-08 13:39 | 42.56092 | 18.26465 | 523 ft | 20 kts | 118° |
| 2026-05-08 13:39 | 42.56016 | 18.26655 | 523 ft | 27 kts | 118° |
| 2026-05-08 13:39 | 42.55917 | 18.26905 | 523 ft | 32 kts | 117° |
| 2026-05-08 13:40 | 42.55812 | 18.27175 | 523 ft | 32 kts | 118° |
| 2026-05-08 13:40 | 42.55704 | 18.27444 | 517 ft | 33 kts | 119° |
| 2026-05-08 13:40 | 42.55596 | 18.27719 | 513 ft | 33 kts | 118° |
| 2026-05-08 13:40 | 42.55488 | 18.27991 | 508 ft | 31 kts | 116° |
| 2026-05-08 13:41 | 42.55509 | 18.28149 | 507 ft | 16 kts | 23° |
| 2026-05-08 13:41 | 42.55607 | 18.28167 | 508 ft | 15 kts | 316° |
| 2026-05-08 13:41 | 42.55668 | 18.28007 | 511 ft | 39 kts | 298° |
| 2026-05-08 13:41 | 42.55958 | 18.27276 | 523 ft | 133 kts | 298° |
| 2026-05-08 13:42 | 42.56471 | 18.25975 | 1101 ft | 169 kts | 297° |
| 2026-05-08 13:42 | 42.57032 | 18.24532 | 2257 ft | 176 kts | 299° |
| 2026-05-08 13:42 | 42.57613 | 18.23040 | 3287 ft | 186 kts | 299° |
| 2026-05-08 13:42 | 42.58252 | 18.21392 | 4159 ft | 205 kts | 300° |
| 2026-05-08 13:43 | 42.58907 | 18.19684 | 5253 ft | 202 kts | 300° |
| 2026-05-08 13:43 | 42.59548 | 18.17999 | 6394 ft | 203 kts | 301° |
| 2026-05-08 13:43 | 42.60316 | 18.16221 | 6827 ft | 237 kts | 310° |
| 2026-05-08 13:43 | 42.61552 | 18.14528 | 7167 ft | 267 kts | 323° |
| 2026-05-08 13:44 | 42.63076 | 18.12855 | 7644 ft | 294 kts | 325° |
| 2026-05-08 13:44 | 42.64748 | 18.11095 | 8250 ft | 315 kts | 325° |
| 2026-05-08 13:44 | 42.66529 | 18.09211 | 8940 ft | 332 kts | 325° |
| 2026-05-08 13:44 | 42.68387 | 18.07224 | 9672 ft | 348 kts | 323° |
| 2026-05-08 13:45 | 42.70291 | 18.05074 | 10314 ft | 364 kts | 322° |
| 2026-05-08 13:45 | 42.72293 | 18.02779 | 10600 ft | 389 kts | 321° |
| 2026-05-08 13:45 | 42.74381 | 18.00358 | 11190 ft | 398 kts | 321° |
| 2026-05-08 13:45 | 42.76479 | 17.97905 | 12127 ft | 398 kts | 320° |
| 2026-05-08 13:46 | 42.78588 | 17.95432 | 12971 ft | 402 kts | 320° |
| 2026-05-08 13:46 | 42.80727 | 17.92919 | 13710 ft | 409 kts | 319° |
| 2026-05-08 13:46 | 42.82891 | 17.90373 | 14487 ft | 413 kts | 319° |
| 2026-05-08 13:46 | 42.85073 | 17.87805 | 15319 ft | 417 kts | 319° |
| 2026-05-08 13:47 | 42.87279 | 17.85208 | 16094 ft | 422 kts | 319° |
| 2026-05-08 13:47 | 42.89511 | 17.82578 | 16842 ft | 426 kts | 319° |
| 2026-05-08 13:47 | 42.91762 | 17.79922 | 17585 ft | 430 kts | 319° |
| 2026-05-08 13:47 | 42.94035 | 17.77239 | 18268 ft | 434 kts | 319° |
| 2026-05-08 13:48 | 42.96333 | 17.74523 | 18824 ft | 439 kts | 319° |
| 2026-05-08 13:48 | 42.98620 | 17.71818 | 19445 ft | 442 kts | 319° |
| 2026-05-08 13:48 | 43.00949 | 17.69060 | 20075 ft | 445 kts | 319° |
| 2026-05-08 13:48 | 43.03296 | 17.66278 | 20614 ft | 450 kts | 318° |
| 2026-05-08 13:49 | 43.05666 | 17.63465 | 21188 ft | 453 kts | 318° |
| 2026-05-08 13:49 | 43.08058 | 17.60624 | 21774 ft | 456 kts | 318° |
| 2026-05-08 13:49 | 43.10458 | 17.57772 | 22345 ft | 459 kts | 318° |
| 2026-05-08 13:49 | 43.12875 | 17.54895 | 22896 ft | 462 kts | 318° |
| 2026-05-08 13:50 | 43.15304 | 17.51999 | 23410 ft | 465 kts | 318° |
| 2026-05-08 13:50 | 43.17746 | 17.49086 | 23843 ft | 467 kts | 318° |
| 2026-05-08 13:50 | 43.20208 | 17.46146 | 24262 ft | 470 kts | 318° |
| 2026-05-08 13:50 | 43.22678 | 17.43193 | 24662 ft | 473 kts | 317° |
| 2026-05-08 13:51 | 43.25162 | 17.40220 | 25102 ft | 475 kts | 317° |
| 2026-05-08 13:51 | 43.27659 | 17.37226 | 25476 ft | 478 kts | 317° |
| 2026-05-08 13:51 | 43.30169 | 17.34216 | 25844 ft | 480 kts | 317° |
| 2026-05-08 13:51 | 43.32690 | 17.31186 | 26204 ft | 482 kts | 317° |
| 2026-05-08 13:52 | 43.35214 | 17.28152 | 26623 ft | 482 kts | 317° |
| 2026-05-08 13:52 | 43.37732 | 17.25122 | 27172 ft | 480 kts | 317° |
| 2026-05-08 13:52 | 43.40231 | 17.22110 | 27748 ft | 477 kts | 317° |
| 2026-05-08 13:52 | 43.42728 | 17.19098 | 28286 ft | 476 kts | 317° |
| 2026-05-08 13:53 | 43.45211 | 17.16100 | 28826 ft | 475 kts | 317° |
| 2026-05-08 13:53 | 43.47688 | 17.13105 | 29410 ft | 473 kts | 316° |
| 2026-05-08 13:53 | 43.50156 | 17.10117 | 30004 ft | 472 kts | 316° |
| 2026-05-08 13:53 | 43.52616 | 17.07135 | 30510 ft | 470 kts | 316° |
| 2026-05-08 13:54 | 43.55068 | 17.04159 | 30978 ft | 469 kts | 316° |
| 2026-05-08 13:54 | 43.57519 | 17.01182 | 31413 ft | 469 kts | 316° |
| 2026-05-08 13:54 | 43.59965 | 16.98206 | 31866 ft | 469 kts | 316° |
| 2026-05-08 13:54 | 43.62408 | 16.95232 | 32359 ft | 467 kts | 316° |
| 2026-05-08 13:55 | 43.64842 | 16.92265 | 32847 ft | 466 kts | 315° |
| 2026-05-08 13:55 | 43.67266 | 16.89306 | 33326 ft | 465 kts | 315° |
| 2026-05-08 13:55 | 43.72102 | 16.83395 | 34258 ft | 462 kts | 315° |
| 2026-05-08 13:56 | 43.74502 | 16.80457 | 34756 ft | 459 kts | 315° |
| 2026-05-08 13:56 | 43.76880 | 16.77544 | 35277 ft | 455 kts | 315° |
| 2026-05-08 13:56 | 43.79243 | 16.74645 | 35773 ft | 452 kts | 315° |
| 2026-05-08 13:56 | 43.81600 | 16.71749 | 36013 ft | 455 kts | 315° |
| 2026-05-08 13:57 | 43.83970 | 16.68831 | 36012 ft | 457 kts | 315° |
| 2026-05-08 13:57 | 43.88703 | 16.63000 | 36005 ft | 452 kts | 315° |
| 2026-05-08 13:58 | 43.93376 | 16.57233 | 36021 ft | 449 kts | 315° |
| 2026-05-08 13:58 | 43.98001 | 16.51508 | 36016 ft | 448 kts | 315° |
| 2026-05-08 13:59 | 44.02651 | 16.45740 | 36028 ft | 448 kts | 315° |
| 2026-05-08 13:59 | 44.07303 | 16.39958 | 36013 ft | 449 kts | 315° |
| 2026-05-08 14:00 | 44.11954 | 16.34165 | 36034 ft | 450 kts | 315° |
| 2026-05-08 14:00 | 44.16642 | 16.28369 | 36029 ft | 452 kts | 316° |
| 2026-05-08 14:01 | 44.21547 | 16.22812 | 36047 ft | 457 kts | 318° |
| 2026-05-08 14:01 | 44.26542 | 16.17274 | 36019 ft | 459 kts | 317° |
| 2026-05-08 14:02 | 44.31519 | 16.11696 | 36026 ft | 457 kts | 317° |
| 2026-05-08 14:02 | 44.36451 | 16.06108 | 36027 ft | 456 kts | 317° |
| 2026-05-08 14:03 | 44.41365 | 16.00513 | 36027 ft | 455 kts | 317° |
| 2026-05-08 14:03 | 44.46267 | 15.94918 | 36033 ft | 454 kts | 316° |
| 2026-05-08 14:04 | 44.51152 | 15.89333 | 36031 ft | 453 kts | 316° |
| 2026-05-08 14:04 | 44.56035 | 15.83738 | 36040 ft | 453 kts | 316° |
| 2026-05-08 14:05 | 44.60916 | 15.78132 | 36044 ft | 454 kts | 316° |
| 2026-05-08 14:05 | 44.65801 | 15.72509 | 36040 ft | 454 kts | 316° |
| 2026-05-08 14:06 | 44.70683 | 15.66878 | 36038 ft | 454 kts | 316° |
| 2026-05-08 14:06 | 44.75562 | 15.61238 | 36031 ft | 454 kts | 316° |
| 2026-05-08 14:07 | 44.80438 | 15.55588 | 36038 ft | 453 kts | 316° |
| 2026-05-08 14:07 | 44.85120 | 15.49934 | 36015 ft | 453 kts | 314° |
| 2026-05-08 14:08 | 44.89986 | 15.44262 | 36043 ft | 455 kts | 317° |
| 2026-05-08 14:08 | 44.94918 | 15.38680 | 36041 ft | 454 kts | 316° |
| 2026-05-08 14:09 | 44.99801 | 15.33031 | 36040 ft | 454 kts | 316° |
| 2026-05-08 14:09 | 45.04624 | 15.27378 | 36051 ft | 454 kts | 316° |
| 2026-05-08 14:10 | 45.09511 | 15.21631 | 36040 ft | 453 kts | 316° |
| 2026-05-08 14:10 | 45.14326 | 15.15960 | 36048 ft | 453 kts | 316° |
| 2026-05-08 14:11 | 45.19134 | 15.10174 | 36043 ft | 452 kts | 314° |
| 2026-05-08 14:11 | 45.23771 | 15.04165 | 36048 ft | 452 kts | 313° |
| 2026-05-08 14:12 | 45.28390 | 14.98105 | 36033 ft | 452 kts | 313° |
| 2026-05-08 14:12 | 45.33020 | 14.92067 | 36038 ft | 452 kts | 313° |
| 2026-05-08 14:13 | 45.37654 | 14.86043 | 36037 ft | 452 kts | 313° |
| 2026-05-08 14:13 | 45.42300 | 14.79997 | 36025 ft | 452 kts | 313° |
| 2026-05-08 14:14 | 45.46943 | 14.73942 | 36034 ft | 453 kts | 313° |
| 2026-05-08 14:14 | 45.51587 | 14.67869 | 36038 ft | 453 kts | 313° |
| 2026-05-08 14:15 | 45.56218 | 14.61800 | 36047 ft | 452 kts | 313° |
| 2026-05-08 14:15 | 45.60845 | 14.55721 | 36045 ft | 451 kts | 313° |
| 2026-05-08 14:16 | 45.65456 | 14.49649 | 36036 ft | 450 kts | 313° |
| 2026-05-08 14:16 | 45.70048 | 14.43587 | 36041 ft | 449 kts | 313° |
| 2026-05-08 14:17 | 45.74633 | 14.37520 | 36046 ft | 449 kts | 312° |
| 2026-05-08 14:17 | 45.79223 | 14.31432 | 36046 ft | 450 kts | 312° |
| 2026-05-08 14:18 | 45.83815 | 14.25327 | 36047 ft | 451 kts | 312° |
| 2026-05-08 14:18 | 45.88427 | 14.19180 | 36048 ft | 455 kts | 312° |
| 2026-05-08 14:19 | 45.93066 | 14.12983 | 36046 ft | 456 kts | 312° |
| 2026-05-08 14:19 | 45.97700 | 14.06780 | 36054 ft | 456 kts | 312° |
| 2026-05-08 14:20 | 46.02352 | 14.00538 | 36040 ft | 456 kts | 312° |
| 2026-05-08 14:20 | 46.06978 | 13.94315 | 36034 ft | 454 kts | 312° |
| 2026-05-08 14:21 | 46.11585 | 13.88102 | 36040 ft | 452 kts | 311° |
| 2026-05-08 14:21 | 46.15381 | 13.82970 | 36043 ft | 450 kts | 311° |
| 2026-05-08 14:22 | 46.19938 | 13.76797 | 36046 ft | 449 kts | 311° |
| 2026-05-08 14:22 | 46.24548 | 13.70700 | 36040 ft | 452 kts | 316° |
| 2026-05-08 14:23 | 46.29659 | 13.65371 | 36058 ft | 454 kts | 320° |
| 2026-05-08 14:23 | 46.34873 | 13.60142 | 36052 ft | 457 kts | 320° |
| 2026-05-08 14:24 | 46.40068 | 13.54842 | 36059 ft | 456 kts | 319° |
| 2026-05-08 14:24 | 46.45217 | 13.49519 | 36057 ft | 454 kts | 319° |
| 2026-05-08 14:25 | 46.50360 | 13.44183 | 36065 ft | 453 kts | 319° |
| 2026-05-08 14:25 | 46.55503 | 13.38838 | 36041 ft | 454 kts | 318° |
| 2026-05-08 14:26 | 46.60234 | 13.32916 | 36053 ft | 448 kts | 311° |
| 2026-05-08 14:26 | 46.64725 | 13.26624 | 36058 ft | 449 kts | 310° |
| 2026-05-08 14:27 | 46.69200 | 13.20339 | 36061 ft | 450 kts | 310° |
| 2026-05-08 14:27 | 46.73726 | 13.14047 | 36046 ft | 450 kts | 311° |
| 2026-05-08 14:28 | 46.78265 | 13.07760 | 36050 ft | 450 kts | 311° |
| 2026-05-08 14:28 | 46.82806 | 13.01461 | 36034 ft | 450 kts | 311° |
| 2026-05-08 14:29 | 46.87336 | 12.95161 | 36026 ft | 449 kts | 311° |
| 2026-05-08 14:29 | 46.91854 | 12.88861 | 36041 ft | 449 kts | 311° |
| 2026-05-08 14:30 | 46.96386 | 12.82524 | 36023 ft | 451 kts | 311° |
| 2026-05-08 14:30 | 47.00909 | 12.76185 | 36025 ft | 450 kts | 311° |
| 2026-05-08 14:31 | 47.05434 | 12.69826 | 36019 ft | 450 kts | 311° |
| 2026-05-08 14:31 | 47.09955 | 12.63456 | 36039 ft | 452 kts | 311° |
| 2026-05-08 14:32 | 47.16756 | 12.53846 | 36044 ft | 453 kts | 311° |
| 2026-05-08 14:32 | 47.21301 | 12.47405 | 36036 ft | 454 kts | 311° |
| 2026-05-08 14:33 | 47.25854 | 12.40935 | 36025 ft | 455 kts | 310° |
| 2026-05-08 14:33 | 47.30412 | 12.34443 | 36033 ft | 455 kts | 310° |
| 2026-05-08 14:34 | 47.34921 | 12.28004 | 35914 ft | 455 kts | 310° |
| 2026-05-08 14:34 | 47.37198 | 12.24746 | 35301 ft | 454 kts | 310° |
| 2026-05-08 14:34 | 47.39490 | 12.21462 | 34629 ft | 453 kts | 309° |
| 2026-05-08 14:35 | 47.41757 | 12.18209 | 33913 ft | 456 kts | 308° |
| 2026-05-08 14:35 | 47.43997 | 12.14987 | 33069 ft | 456 kts | 309° |
| 2026-05-08 14:35 | 47.46269 | 12.11720 | 32248 ft | 454 kts | 309° |
| 2026-05-08 14:35 | 47.48524 | 12.08474 | 31568 ft | 453 kts | 309° |
| 2026-05-08 14:36 | 47.50755 | 12.05201 | 31015 ft | 449 kts | 306° |
| 2026-05-08 14:36 | 47.52603 | 12.01537 | 30470 ft | 442 kts | 295° |
| 2026-05-08 14:36 | 47.53978 | 11.97511 | 30096 ft | 433 kts | 288° |
| 2026-05-08 14:36 | 47.54896 | 11.93274 | 29530 ft | 435 kts | 278° |
| 2026-05-08 14:37 | 47.55477 | 11.88873 | 28916 ft | 433 kts | 277° |
| 2026-05-08 14:37 | 47.56023 | 11.84513 | 28333 ft | 430 kts | 277° |
| 2026-05-08 14:37 | 47.56561 | 11.80186 | 27691 ft | 421 kts | 277° |
| 2026-05-08 14:37 | 47.57091 | 11.75991 | 27146 ft | 409 kts | 277° |
| 2026-05-08 14:38 | 47.57612 | 11.71901 | 26653 ft | 398 kts | 278° |
| 2026-05-08 14:38 | 47.58123 | 11.67913 | 26023 ft | 392 kts | 278° |
| 2026-05-08 14:38 | 47.58628 | 11.63980 | 25485 ft | 385 kts | 278° |
| 2026-05-08 14:38 | 47.59127 | 11.60106 | 24934 ft | 380 kts | 278° |
| 2026-05-08 14:39 | 47.59619 | 11.56289 | 24401 ft | 375 kts | 278° |
| 2026-05-08 14:39 | 47.60104 | 11.52514 | 23875 ft | 370 kts | 279° |
| 2026-05-08 14:39 | 47.60583 | 11.48781 | 23285 ft | 367 kts | 279° |
| 2026-05-08 14:39 | 47.61055 | 11.45092 | 22706 ft | 363 kts | 279° |
| 2026-05-08 14:40 | 47.61522 | 11.41440 | 22172 ft | 358 kts | 279° |
| 2026-05-08 14:40 | 47.61980 | 11.37840 | 21660 ft | 353 kts | 279° |
| 2026-05-08 14:40 | 47.62432 | 11.34286 | 21168 ft | 350 kts | 279° |
| 2026-05-08 14:40 | 47.62881 | 11.30735 | 20667 ft | 349 kts | 279° |
| 2026-05-08 14:41 | 47.63328 | 11.27203 | 20179 ft | 349 kts | 279° |
| 2026-05-08 14:41 | 47.63780 | 11.23611 | 19699 ft | 361 kts | 279° |
| 2026-05-08 14:41 | 47.64243 | 11.19925 | 19172 ft | 363 kts | 279° |
| 2026-05-08 14:41 | 47.64636 | 11.16790 | 18718 ft | 360 kts | 279° |
| 2026-05-08 14:42 | 47.65062 | 11.13391 | 18204 ft | 356 kts | 279° |
| 2026-05-08 14:42 | 47.65511 | 11.09795 | 17650 ft | 352 kts | 279° |
| 2026-05-08 14:42 | 47.65953 | 11.06251 | 17124 ft | 347 kts | 279° |
| 2026-05-08 14:42 | 47.66388 | 11.02747 | 16622 ft | 343 kts | 279° |
| 2026-05-08 14:43 | 47.66816 | 10.99297 | 16135 ft | 339 kts | 279° |
| 2026-05-08 14:43 | 47.67238 | 10.95875 | 15641 ft | 335 kts | 279° |
| 2026-05-08 14:43 | 47.67655 | 10.92496 | 15163 ft | 332 kts | 279° |
| 2026-05-08 14:43 | 47.68067 | 10.89144 | 14694 ft | 329 kts | 279° |
| 2026-05-08 14:44 | 47.68474 | 10.85819 | 14216 ft | 326 kts | 279° |
| 2026-05-08 14:44 | 47.68878 | 10.82515 | 13721 ft | 324 kts | 279° |
| 2026-05-08 14:44 | 47.69278 | 10.79233 | 13194 ft | 322 kts | 279° |
| 2026-05-08 14:44 | 47.69674 | 10.75979 | 12717 ft | 319 kts | 279° |
| 2026-05-08 14:45 | 47.70066 | 10.72753 | 12248 ft | 316 kts | 279° |
| 2026-05-08 14:45 | 47.70453 | 10.69553 | 11754 ft | 314 kts | 279° |
| 2026-05-08 14:45 | 47.70833 | 10.66408 | 11287 ft | 312 kts | 279° |
| 2026-05-08 14:45 | 47.71213 | 10.63249 | 10815 ft | 310 kts | 279° |
| 2026-05-08 14:46 | 47.71587 | 10.60142 | 10612 ft | 301 kts | 279° |
| 2026-05-08 14:46 | 47.71951 | 10.57105 | 10465 ft | 297 kts | 279° |
| 2026-05-08 14:46 | 47.72310 | 10.54107 | 10319 ft | 293 kts | 278° |
| 2026-05-08 14:46 | 47.72659 | 10.51180 | 10194 ft | 283 kts | 278° |
| 2026-05-08 14:47 | 47.72996 | 10.48357 | 10058 ft | 272 kts | 278° |
| 2026-05-08 14:47 | 47.73320 | 10.45632 | 9757 ft | 269 kts | 278° |
| 2026-05-08 14:47 | 47.73647 | 10.42875 | 9446 ft | 267 kts | 279° |
| 2026-05-08 14:47 | 47.73967 | 10.40167 | 9126 ft | 265 kts | 278° |
| 2026-05-08 14:48 | 47.74285 | 10.37474 | 8815 ft | 264 kts | 278° |
| 2026-05-08 14:48 | 47.74614 | 10.34809 | 8499 ft | 262 kts | 282° |
| 2026-05-08 14:48 | 47.75185 | 10.32242 | 8199 ft | 261 kts | 290° |
| 2026-05-08 14:48 | 47.75866 | 10.29749 | 7894 ft | 260 kts | 291° |
| 2026-05-08 14:49 | 47.76554 | 10.27275 | 7604 ft | 259 kts | 291° |
| 2026-05-08 14:49 | 47.77232 | 10.24803 | 7307 ft | 257 kts | 291° |
| 2026-05-08 14:49 | 47.77896 | 10.22342 | 7016 ft | 256 kts | 291° |
| 2026-05-08 14:49 | 47.78550 | 10.19883 | 6730 ft | 255 kts | 291° |
| 2026-05-08 14:50 | 47.79195 | 10.17438 | 6452 ft | 254 kts | 291° |
| 2026-05-08 14:50 | 47.79829 | 10.15025 | 6315 ft | 246 kts | 291° |
| 2026-05-08 14:50 | 47.80439 | 10.12694 | 6187 ft | 238 kts | 291° |
| 2026-05-08 14:50 | 47.81034 | 10.10436 | 6070 ft | 231 kts | 294° |
| 2026-05-08 14:51 | 47.81983 | 10.08596 | 5965 ft | 221 kts | 322° |
| 2026-05-08 14:51 | 47.83228 | 10.07382 | 5907 ft | 207 kts | 330° |
| 2026-05-08 14:51 | 47.84440 | 10.06339 | 5792 ft | 196 kts | 330° |
| 2026-05-08 14:51 | 47.85609 | 10.05331 | 5694 ft | 192 kts | 330° |
| 2026-05-08 14:52 | 47.86768 | 10.04324 | 5486 ft | 194 kts | 330° |
| 2026-05-08 14:52 | 47.89185 | 10.02809 | 5145 ft | 183 kts | 12° |
| 2026-05-08 14:52 | 47.90240 | 10.03759 | 5068 ft | 182 kts | 46° |
| 2026-05-08 14:53 | 47.91149 | 10.05163 | 4837 ft | 193 kts | 48° |
| 2026-05-08 14:53 | 47.91978 | 10.06719 | 4571 ft | 186 kts | 53° |
| 2026-05-08 14:53 | 47.92681 | 10.08279 | 4312 ft | 174 kts | 57° |
| 2026-05-08 14:53 | 47.93283 | 10.09782 | 4084 ft | 163 kts | 59° |
| 2026-05-08 14:54 | 47.93834 | 10.11180 | 3881 ft | 149 kts | 58° |
| 2026-05-08 14:54 | 47.94343 | 10.12466 | 3737 ft | 137 kts | 58° |
| 2026-05-08 14:54 | 47.94839 | 10.13726 | 3523 ft | 142 kts | 58° |
| 2026-05-08 14:54 | 47.95330 | 10.14971 | 3318 ft | 139 kts | 58° |
| 2026-05-08 14:55 | 47.95816 | 10.16200 | 3140 ft | 137 kts | 59° |
| 2026-05-08 14:55 | 47.96312 | 10.17451 | 2942 ft | 142 kts | 58° |
| 2026-05-08 14:55 | 47.96822 | 10.18751 | 2792 ft | 148 kts | 58° |
| 2026-05-08 14:55 | 47.97332 | 10.20057 | 2565 ft | 143 kts | 58° |
| 2026-05-08 14:56 | 47.97837 | 10.21310 | 2331 ft | 140 kts | 58° |
| 2026-05-08 14:56 | 47.98324 | 10.22543 | 2137 ft | 136 kts | 59° |
| 2026-05-08 14:56 | 47.98774 | 10.23685 | 2079 ft | 105 kts | 59° |
| 2026-05-08 14:56 | 47.99028 | 10.24327 | 2069 ft | 41 kts | 62° |
| 2026-05-08 14:57 | 47.99090 | 10.24483 | 2070 ft | 3 kts | 352° |
| 2026-05-08 14:57 | 47.99095 | 10.24448 | 2069 ft | 7 kts | 251° |
| 2026-05-08 14:57 | 47.99025 | 10.24312 | 2070 ft | 23 kts | 236° |
| 2026-05-08 14:57 | 47.98945 | 10.24112 | 2072 ft | 22 kts | 240° |
| 2026-05-08 14:58 | 47.98865 | 10.23909 | 2075 ft | 23 kts | 239° |
| 2026-05-08 14:58 | 47.98829 | 10.23799 | 2077 ft | 4 kts | 290° |
| 2026-05-08 14:58 | 47.98857 | 10.23756 | 2079 ft | 9 kts | 317° |
| 2026-05-08 14:58 | 47.98906 | 10.23691 | 2078 ft | 11 kts | 301° |
| 2026-05-08 14:59 | 47.98894 | 10.23561 | 2076 ft | 14 kts | 249° |
| 2026-05-08 14:59 | 47.98867 | 10.23447 | 2081 ft | 1 kts | 252° |
| 2026-05-08 14:59 | 47.98850 | 10.23373 | 2079 ft | 17 kts | 250° |
| 2026-05-08 15:00 | 47.98820 | 10.23250 | 2077 ft | 7 kts | 250° |
| 2026-05-08 15:00 | 47.98823 | 10.23221 | 2077 ft | 2 kts | 325° |
| 2026-05-08 15:00 | 47.98857 | 10.23218 | 2077 ft | 3 kts | 26° |
| 2026-05-08 15:00 | 47.98866 | 10.23234 | 2074 ft | 0 kts | 51° |
| 2026-05-08 15:01 | 47.98868 | 10.23238 | 2074 ft | 0 kts | 51° |